EST,Max TemperatureF,Mean TemperatureF,Min TemperatureF,Max Dew PointF,MeanDew PointF,Min DewpointF,Max Humidity, Mean Humidity, Min Humidity, Max Sea Level PressureIn, Mean Sea Level PressureIn, Min Sea Level PressureIn, Max VisibilityMiles, Mean VisibilityMiles, Min VisibilityMiles, Max Wind SpeedMPH, Mean Wind SpeedMPH, Max Gust SpeedMPH,PrecipitationIn, CloudCover, Events, WindDirDegrees
2011-11-1,52,41,30,41,37,30,100,84,58,30.14,30.09,30.02,10,7,0,12,3,21,0.00,3,Fog-Rain,180
2011-11-2,55,47,39,47,44,36,100,93,55,30.12,30.03,29.99,10,5,2,16,4,31,0.71,8,Rain,344
2011-11-3,46,36,27,40,34,26,100,85,51,30.27,30.18,30.09,10,10,10,9,3,,0.00,2,,347
2011-11-4,50,34,19,37,28,19,96,83,48,30.39,30.35,30.26,10,10,10,6,2,,0.00,0,,71
2011-11-5,53,37,21,34,28,19,100,75,38,30.36,30.27,30.14,10,9,1,9,4,,0.00,0,,155
2011-11-6,63,44,27,47,38,26,100,70,50,30.12,30.00,29.88,10,10,10,20,6,34,0.00,3,,192
2011-11-7,55,47,37,47,33,22,89,54,28,30.21,30.09,29.96,10,10,10,20,13,39,0.00,1,,235
2011-11-8,42,38,34,41,39,33,100,97,93,30.24,30.18,30.11,10,7,2,8,3,,0.63,7,Rain,66
2011-11-9,50,44,37,47,41,33,100,97,86,30.09,29.61,29.34,10,7,2,23,9,32,0.61,8,Rain,15
2011-11-10,41,37,33,34,32,30,96,82,65,29.83,29.76,29.58,10,10,5,21,12,34,0.04,8,Rain-Snow,280
2011-11-11,39,36,32,32,29,26,92,76,62,29.86,29.80,29.65,10,10,9,13,7,20,0.01,7,,246
2011-11-12,55,44,33,38,35,31,97,75,45,29.73,29.66,29.58,10,10,10,13,7,17,0.00,1,,215
2011-11-13,57,52,48,52,46,36,94,79,58,29.55,29.35,29.23,10,10,4,15,9,31,0.13,7,Rain,195
2011-11-14,51,46,42,45,38,34,87,70,52,29.59,29.52,29.38,10,10,10,15,10,25,0.00,4,,230
2011-11-15,48,38,28,38,33,28,96,72,52,29.75,29.68,29.60,10,10,10,14,8,22,0.00,2,,222
2011-11-16,46,39,30,37,25,18,71,61,52,29.96,29.83,29.66,10,10,10,16,12,25,0.00,6,,270
2011-11-17,34,31,28,20,17,13,61,57,50,30.09,29.98,29.91,10,10,10,20,11,28,0.00,6,,278
2011-11-18,50,39,28,27,22,16,69,55,39,30.11,29.96,29.81,10,10,10,16,9,26,0.00,5,,203
2011-11-19,48,44,39,41,34,27,100,75,54,29.85,29.77,29.68,10,8,2,14,6,21,0.12,7,Rain,193
2011-11-20,37,32,27,35,25,18,93,79,64,30.40,30.18,29.85,10,10,10,21,12,29,0.01,8,Rain,339
2011-11-21,35,31,27,27,22,17,79,72,64,30.44,30.39,30.34,10,10,10,10,3,,0.00,8,,160
2011-11-22,37,30,23,31,28,22,100,85,75,30.38,30.22,30.03,10,10,9,14,4,,0.00,5,,131
2011-11-23,41,30,19,36,30,18,100,88,70,30.13,30.08,30.00,10,10,8,13,4,22,0.00,6,,243
2011-11-24,46,44,41,41,39,37,89,82,73,30.06,29.98,29.88,9,7,4,14,9,25,0.00,6,,209
2011-11-25,53,48,44,43,42,41,87,77,66,29.92,29.85,29.80,10,10,8,15,10,24,0.00,3,,225
2011-11-26,53,50,46,50,46,42,100,87,71,29.93,29.82,29.73,10,9,4,12,5,18,0.07,8,Rain,166
2011-11-27,48,40,30,48,34,26,100,90,79,30.08,29.87,29.72,10,8,2,17,11,24,0.15,8,Rain-Snow,305
2011-11-28,36,33,30,29,27,25,89,78,70,30.18,30.12,30.05,10,10,10,10,6,17,0.00,8,,215
2011-11-29,36,32,28,31,26,19,96,76,64,30.12,30.04,29.92,10,10,10,17,8,22,0.00,4,,2
2011-11-30,42,35,28,29,25,19,85,72,49,30.09,29.94,29.86,10,10,10,17,9,24,0.00,3,,301